Terminal Aerodrome Forecast
Issued by NWS

Home | Current Version | Previous Version | Text Only | Print | Product List | Glossary On
Versions: 1 2 3 4 5 6 7 8 9 10 11 12 13 14 15 16 17
000
FTUS41 KBTV 262135 AAA
TAFMSS
TAF AMD
KMSS 262135Z 2622/2718 06014G20KT P6SM BKN150 BKN200
     FM270000 06014G20KT P6SM OVC080
     FM270600 04014G24KT P6SM OVC060
     FM271200 03015G25KT P6SM OVC070=

USA.gov is the U.S. government's official web portal to all federal, state and local government web resources and services.